Terminal Aerodrome Forecast
Issued by NWS

Home | Current Version | Previous Version | Text Only | Print | Product List | Glossary On
Versions: 1 2 3 4 5 6 7 8 9 10 11 12 13 14 15 16
000
FTUS43 KJKL 222300
TAFSME
TAF
KSME 222335Z 2300/2324 15004KT P6SM VCSH SCT020 OVC050
     FM230200 16004KT 6SM -SHRA SCT015 OVC030
     FM230400 17004KT 6SM -SHRA OVC015
     FM230600 19005KT P6SM VCSH OVC009
     FM231700 16004KT P6SM VCSH OVC015
     FM232200 15004KT 5SM -SHRA BR OVC009=

USA.gov is the U.S. government's official web portal to all federal, state and local government web resources and services.